Time;durP1;ratioP1;P1;durP2;ratioP2;P2;SDS_P1;SDS_P2;PMS_P1;PMS_P2;Temp;Humidity;BMP_temperature;BMP_pressure;BME280_temperature;BME280_humidity;BME280_pressure;Samples;Min_cycle;Max_cycle;Signal;HPM_P1;HPM_P2
2021/03/22 03:09:37;;;;;;;13.00;9.13;;;5.60;99.90;;;;;;6070090;23;20392;-75
2021/03/22 03:12:48;;;;;;;15.85;9.45;;;5.50;99.90;;;;;;6070682;23;20021;-75
2021/03/22 03:16:00;;;;;;;14.80;9.50;;;5.50;99.90;;;;;;6043900;23;20034;-75
2021/03/22 03:19:02;;;;;;;;;;;;;;;;;;;;;
2021/03/22 03:22:24;;;;;;;;;;;;;;;;;;;;;
2021/03/22 03:40:53;;;;;;;14.98;10.63;;;5.30;99.90;;;;;;5739556;25;20014;-75
2021/03/22 06:10:51;;;;;;;20.83;14.13;;;5.70;99.90;;;;;;6070297;23;20001;-77
2021/03/22 06:13:48;;;;;;;21.60;14.20;;;5.80;99.90;;;;;;6070015;23;20045;-77
2021/03/22 06:16:23;;;;;;;23.90;13.93;;;5.90;99.90;;;;;;6047450;23;20471;-77
2021/03/22 06:19:03;;;;;;;20.25;14.07;;;6.00;99.90;;;;;;6068530;23;20015;-76
2021/03/22 06:21:33;;;;;;;22.95;14.27;;;6.10;99.90;;;;;;6067907;23;20011;-76
2021/03/22 06:23:59;;;;;;;19.85;13.60;;;6.20;99.90;;;;;;6067587;23;20002;-76
2021/03/22 06:26:40;;;;;;;22.58;14.60;;;6.30;99.90;;;;;;6067815;23;20007;-77
2021/03/22 06:29:12;;;;;;;22.25;13.25;;;6.40;99.90;;;;;;6067474;23;20093;-77
2021/03/22 06:31:40;;;;;;;21.85;14.63;;;6.60;99.90;;;;;;6068873;23;20007;-76
2021/03/22 06:34:08;;;;;;;20.80;13.27;;;6.60;99.90;;;;;;6067094;23;20003;-77
2021/03/22 06:36:34;;;;;;;18.10;12.40;;;6.70;99.90;;;;;;6066763;23;20019;-77
2021/03/22 06:39:05;;;;;;;20.33;13.43;;;6.70;99.90;;;;;;6067542;23;20003;-76
2021/03/22 06:41:48;;;;;;;18.42;13.52;;;6.50;99.80;;;;;;6068199;23;20007;-76
2021/03/22 06:44:32;;;;;;;24.30;14.80;;;6.60;99.90;;;;;;6070407;23;20010;-76
2021/03/22 06:47:12;;;;;;;21.15;13.45;;;6.50;99.90;;;;;;6070383;23;20007;-76
2021/03/22 06:49:41;;;;;;;20.17;14.07;;;6.50;99.90;;;;;;6070254;23;20038;-76
2021/03/22 06:52:10;;;;;;;18.33;13.50;;;6.50;99.90;;;;;;6070129;23;20082;-76
2021/03/22 06:54:41;;;;;;;21.45;14.40;;;6.60;99.90;;;;;;6070094;23;20123;-76
2021/03/22 06:57:19;;;;;;;22.55;13.80;;;6.60;99.90;;;;;;6070725;23;20013;-76
2021/03/22 07:00:13;;;;;;;19.90;13.48;;;6.80;99.90;;;;;;6070566;23;20066;-76
2021/03/22 07:02:41;;;;;;;18.80;12.73;;;6.70;99.90;;;;;;6070414;23;20066;-75
2021/03/22 07:05:28;;;;;;;16.92;11.30;;;6.70;99.10;;;;;;6070177;23;20030;-74
2021/03/22 07:07:55;;;;;;;19.08;11.60;;;6.90;93.90;;;;;;6070385;23;20061;-74
2021/03/22 07:10:24;;;;;;;16.60;11.02;;;7.00;93.60;;;;;;6070108;23;20019;-75
2021/03/22 07:13:04;;;;;;;18.02;12.27;;;7.10;92.80;;;;;;6070191;23;20025;-75
2021/03/22 07:15:35;;;;;;;19.80;13.00;;;7.10;91.70;;;;;;6070435;23;20013;-75
2021/03/22 07:18:10;;;;;;;18.88;12.10;;;7.20;94.00;;;;;;6070251;23;20007;-75
2021/03/22 07:20:36;;;;;;;18.42;12.20;;;7.20;95.50;;;;;;6071026;23;20003;-75
2021/03/22 07:23:23;;;;;;;18.77;13.13;;;7.40;94.90;;;;;;6069854;23;20010;-75
2021/03/22 07:25:51;;;;;;;17.95;11.57;;;7.40;95.10;;;;;;6070298;23;20227;-75
2021/03/22 07:28:25;;;;;;;15.07;10.23;;;7.10;94.60;;;;;;6070477;23;20454;-75
2021/03/22 07:31:05;;;;;;;14.88;9.52;;;7.30;92.00;;;;;;6070374;23;20035;-75
2021/03/22 07:33:53;;;;;;;16.00;11.43;;;7.40;90.10;;;;;;6069750;23;20396;-75
2021/03/22 07:36:30;;;;;;;20.90;11.75;;;7.40;90.80;;;;;;6070962;23;20014;-75
2021/03/22 07:39:30;;;;;;;19.73;11.80;;;7.20;91.40;;;;;;6070131;23;20026;-75
2021/03/22 07:42:03;;;;;;;16.30;9.95;;;7.40;91.00;;;;;;6070508;23;20059;-75
2021/03/22 07:44:52;;;;;;;16.42;11.88;;;7.60;90.10;;;;;;6069972;23;20006;-75
2021/03/22 07:47:44;;;;;;;17.95;12.40;;;7.50;90.90;;;;;;6054425;23;20011;-75
2021/03/22 07:50:43;;;;;;;17.88;12.32;;;7.60;92.00;;;;;;6070005;23;20006;-75
2021/03/22 07:53:15;;;;;;;18.00;12.77;;;7.40;92.30;;;;;;6069621;23;20070;-75
2021/03/22 07:55:53;;;;;;;18.52;12.50;;;7.70;92.30;;;;;;6070310;23;20430;-75
2021/03/22 07:58:55;;;;;;;16.02;11.32;;;7.60;89.00;;;;;;6069623;23;20003;-75
2021/03/22 08:01:43;;;;;;;18.45;12.35;;;7.70;90.60;;;;;;6070662;23;20073;-75
2021/03/22 08:04:21;;;;;;;17.73;12.25;;;7.60;90.70;;;;;;6070093;23;20062;-75
2021/03/22 08:06:54;;;;;;;19.00;12.07;;;7.80;90.00;;;;;;6069970;23;20007;-75
2021/03/22 08:09:43;;;;;;;18.20;12.93;;;8.10;86.10;;;;;;6070016;23;20007;-75
2021/03/22 08:12:15;;;;;;;17.00;13.18;;;7.90;87.30;;;;;;6068962;23;20093;-75
2021/03/22 08:14:42;;;;;;;14.23;9.75;;;8.30;89.50;;;;;;6069070;23;20007;-75
2021/03/22 08:17:16;;;;;;;17.52;12.27;;;7.90;85.70;;;;;;6067378;23;20010;-75
2021/03/22 08:19:48;;;;;;;19.17;11.80;;;8.20;86.40;;;;;;6068663;23;20013;-75
2021/03/22 08:22:38;;;;;;;18.67;13.35;;;7.90;86.80;;;;;;6069361;23;20092;-75
2021/03/22 08:25:23;;;;;;;19.23;12.68;;;8.20;88.60;;;;;;6069409;23;20458;-75
2021/03/22 08:28:02;;;;;;;17.08;11.93;;;8.20;89.40;;;;;;6069281;23;20386;-75
2021/03/22 08:30:30;;;;;;;15.95;11.18;;;8.10;87.70;;;;;;6068571;23;20014;-75
2021/03/22 08:33:21;;;;;;;20.17;12.27;;;8.20;84.20;;;;;;6069373;23;20082;-75
2021/03/22 08:35:56;;;;;;;16.70;12.00;;;8.20;87.00;;;;;;6069781;23;20062;-75
2021/03/22 08:38:25;;;;;;;16.15;12.07;;;8.50;86.90;;;;;;6070266;23;20003;-75
2021/03/22 08:40:53;;;;;;;17.48;12.05;;;8.70;82.00;;;;;;6069737;23;20069;-75
2021/03/22 08:43:44;;;;;;;18.00;12.07;;;8.60;83.50;;;;;;6069460;23;20127;-75
2021/03/22 08:46:37;;;;;;;19.05;11.88;;;8.40;84.50;;;;;;6069586;23;20497;-75
2021/03/22 08:49:18;;;;;;;19.05;13.57;;;8.70;85.30;;;;;;6069611;23;20002;-75
2021/03/22 08:51:44;;;;;;;17.38;12.70;;;8.80;86.50;;;;;;6069555;23;20058;-75
2021/03/22 08:54:23;;;;;;;15.95;12.07;;;8.90;84.50;;;;;;6069375;23;20014;-75
2021/03/22 08:57:02;;;;;;;17.13;11.90;;;9.10;81.80;;;;;;6069862;23;20010;-75
2021/03/22 08:59:28;;;;;;;19.15;12.82;;;9.10;83.90;;;;;;6069343;23;20007;-75
2021/03/22 09:02:30;;;;;;;18.13;12.35;;;9.10;83.90;;;;;;6070108;23;20018;-75
2021/03/22 09:04:55;;;;;;;17.80;13.27;;;9.50;81.50;;;;;;6068191;23;20007;-75
2021/03/22 09:07:28;;;;;;;15.40;11.15;;;9.60;83.30;;;;;;6069224;23;20057;-75
2021/03/22 09:10:23;;;;;;;18.02;12.00;;;9.50;79.70;;;;;;6069127;23;20007;-75
2021/03/22 09:12:50;;;;;;;16.83;12.48;;;9.70;77.10;;;;;;6068733;23;20049;-75
2021/03/22 09:16:06;;;;;;;17.38;12.20;;;10.10;79.50;;;;;;6068944;23;20007;-75
2021/03/22 09:18:32;;;;;;;33.47;23.95;;;10.00;78.20;;;;;;6019655;23;20026;-75
2021/03/22 09:21:18;;;;;;;22.15;16.00;;;10.00;72.40;;;;;;6068995;23;20006;-75
2021/03/22 09:23:45;;;;;;;14.90;10.60;;;10.00;74.60;;;;;;6068966;23;20033;-75
2021/03/22 09:26:11;;;;;;;15.68;11.88;;;9.60;73.00;;;;;;6067759;23;20011;-75
2021/03/22 09:28:44;;;;;;;18.05;13.23;;;9.70;77.50;;;;;;6069520;23;20007;-75
2021/03/22 09:31:13;;;;;;;15.18;10.52;;;10.00;75.20;;;;;;6068815;23;20007;-75
2021/03/22 09:33:56;;;;;;;15.02;10.68;;;10.40;70.60;;;;;;6068994;23;19999;-75
2021/03/22 09:36:41;;;;;;;14.43;9.82;;;10.40;71.10;;;;;;6069240;23;20011;-75
2021/03/22 09:39:17;;;;;;;14.50;9.93;;;10.10;68.10;;;;;;6069108;23;20013;-75
2021/03/22 09:41:54;;;;;;;13.93;10.23;;;10.20;69.50;;;;;;6068586;23;20006;-75
2021/03/22 09:44:24;;;;;;;13.82;9.48;;;9.80;70.10;;;;;;6069004;23;20003;-75
2021/03/22 09:47:18;;;;;;;14.70;9.68;;;10.00;69.80;;;;;;6069697;23;20168;-75
2021/03/22 09:50:20;;;;;;;18.52;11.55;;;9.90;68.20;;;;;;6066958;23;20007;-75
2021/03/22 09:52:53;;;;;;;14.02;10.27;;;10.00;69.80;;;;;;6050167;23;20014;-75
2021/03/22 09:55:28;;;;;;;17.60;11.90;;;9.90;74.20;;;;;;6068790;23;20077;-75
2021/03/22 09:57:58;;;;;;;15.40;11.50;;;10.40;73.40;;;;;;6068881;23;20007;-74
2021/03/22 10:00:26;;;;;;;16.30;10.30;;;10.60;67.80;;;;;;6069073;23;20007;-75
2021/03/22 10:02:56;;;;;;;12.18;9.30;;;10.20;66.90;;;;;;6068744;23;20022;-75
2021/03/22 10:05:50;;;;;;;14.43;10.75;;;10.30;68.50;;;;;;6069016;23;20037;-75
2021/03/22 10:08:36;;;;;;;15.77;11.48;;;10.40;72.80;;;;;;6069703;23;20017;-75
2021/03/22 10:11:50;;;;;;;16.58;11.68;;;10.40;71.80;;;;;;6062308;23;20018;-75
2021/03/22 10:15:02;;;;;;;15.18;10.48;;;10.40;73.40;;;;;;6093666;23;20347;-76
2021/03/22 10:21:44;;;;;;;;;;;;;;;;;;;;;
2021/03/22 10:28:26;;;;;;;;;;;;;;;;;;;;;
2021/03/22 10:38:54;;;;;;;17.63;12.35;;;10.60;73.80;;;;;;5922170;24;20091;-76
2021/03/22 10:41:50;;;;;;;16.13;10.52;;;11.00;72.70;;;;;;6059735;23;20022;-76
2021/03/22 10:44:46;;;;;;;16.27;10.82;;;11.10;70.50;;;;;;6097031;23;20010;-76
2021/03/22 10:47:19;;;;;;;17.10;11.10;;;11.30;72.50;;;;;;6068513;23;20076;-76
2021/03/22 10:49:53;;;;;;;19.25;12.73;;;11.00;71.20;;;;;;6070904;23;20011;-73
2021/03/22 10:52:41;;;;;;;18.88;12.73;;;10.80;73.30;;;;;;6087317;23;20014;-73
2021/03/22 10:55:34;;;;;;;16.55;11.48;;;10.90;74.20;;;;;;6057934;23;20085;-74
2021/03/22 10:58:42;;;;;;;14.93;10.93;;;10.90;75.20;;;;;;6097106;23;20010;-72
2021/03/22 11:04:20;;;;;;;14.75;11.30;;;11.30;75.40;;;;;;5953239;24;20023;-74
2021/03/22 11:07:16;;;;;;;16.98;11.60;;;10.80;73.70;;;;;;5953375;24;20017;-75
2021/03/22 11:10:11;;;;;;;16.38;11.75;;;10.90;74.90;;;;;;5953392;24;20076;-75
2021/03/22 11:12:51;;;;;;;15.75;11.60;;;10.90;75.70;;;;;;5890162;24;20033;-75
2021/03/22 11:15:40;;;;;;;16.90;11.15;;;11.10;72.40;;;;;;5871734;24;20018;-75
2021/03/22 11:18:18;;;;;;;14.07;10.68;;;11.00;71.90;;;;;;5847950;24;20454;-75
2021/03/22 11:20:58;;;;;;;14.80;11.07;;;11.20;73.00;;;;;;5871161;24;20014;-74
2021/03/22 11:23:56;;;;;;;15.60;10.43;;;11.00;72.20;;;;;;5817941;24;20015;-74
2021/03/22 11:26:29;;;;;;;15.82;12.10;;;11.00;72.50;;;;;;5914466;24;20029;-74
2021/03/22 11:29:23;;;;;;;20.17;15.02;;;10.60;72.60;;;;;;5948814;24;20016;-75
2021/03/22 11:32:09;;;;;;;15.98;11.07;;;10.90;72.80;;;;;;5981028;24;20008;-74
2021/03/22 11:34:54;;;;;;;16.00;11.57;;;11.20;72.60;;;;;;5981340;24;20009;-74
2021/03/22 11:37:52;;;;;;;16.30;10.23;;;10.90;72.20;;;;;;5957829;24;20084;-75
2021/03/22 11:40:28;;;;;;;15.80;10.90;;;10.70;73.30;;;;;;5965607;24;20041;-72
2021/03/22 11:43:31;;;;;;;16.83;11.45;;;10.40;73.80;;;;;;5981014;24;20012;-72
2021/03/22 11:46:25;;;;;;;17.33;11.88;;;10.60;74.00;;;;;;5957869;24;20012;-75
2021/03/22 11:48:54;;;;;;;16.70;11.93;;;10.70;75.00;;;;;;5980968;24;20024;-74
2021/03/22 11:51:24;;;;;;;15.73;11.23;;;10.50;73.90;;;;;;5981185;24;20137;-75
2021/03/22 11:54:09;;;;;;;16.10;11.20;;;10.40;74.40;;;;;;6003315;23;20093;-75
2021/03/22 11:56:39;;;;;;;17.95;10.80;;;10.70;72.80;;;;;;6043736;23;20007;-75
2021/03/22 11:59:23;;;;;;;14.80;11.73;;;11.00;73.40;;;;;;6043915;23;20505;-74
2021/03/22 12:02:41;;;;;;;17.33;10.65;;;11.00;73.70;;;;;;6043696;23;20034;-72
2021/03/22 12:05:32;;;;;;;15.35;11.23;;;10.60;72.70;;;;;;6020353;23;20007;-75
2021/03/22 12:08:21;;;;;;;16.50;11.38;;;10.50;73.80;;;;;;6043511;23;20489;-75
2021/03/22 12:10:58;;;;;;;14.48;10.45;;;10.60;74.10;;;;;;6069362;23;20002;-75
2021/03/22 12:13:38;;;;;;;13.27;10.45;;;10.80;73.10;;;;;;6071578;23;20015;-75
2021/03/22 12:16:05;;;;;;;15.20;10.73;;;10.60;72.50;;;;;;6066832;23;20061;-75
2021/03/22 12:18:35;;;;;;;14.60;11.07;;;10.50;73.30;;;;;;6068751;23;20031;-75
2021/03/22 12:21:06;;;;;;;17.02;10.43;;;10.50;74.40;;;;;;6069484;23;20002;-75
2021/03/22 12:23:32;;;;;;;14.98;10.63;;;10.40;74.00;;;;;;6069154;23;20007;-75
2021/03/22 12:25:58;;;;;;;18.75;11.73;;;10.40;74.10;;;;;;6069347;23;20419;-75
2021/03/22 12:28:24;;;;;;;14.52;10.32;;;10.60;75.10;;;;;;6069546;23;20450;-75
2021/03/22 12:30:50;;;;;;;16.45;10.85;;;10.70;73.40;;;;;;6069035;23;20007;-74
2021/03/22 12:33:29;;;;;;;16.65;11.02;;;10.40;73.00;;;;;;6069145;23;20014;-75
2021/03/22 12:35:56;;;;;;;14.38;10.18;;;10.60;74.40;;;;;;6069090;23;20014;-75
2021/03/22 12:38:23;;;;;;;14.85;9.98;;;10.90;73.40;;;;;;6069052;23;20002;-75
2021/03/22 12:40:50;;;;;;;15.38;10.65;;;11.10;72.90;;;;;;6069191;23;20066;-75
2021/03/22 12:43:28;;;;;;;14.73;11.40;;;11.20;74.20;;;;;;6069100;23;20030;-75
2021/03/22 12:45:54;;;;;;;13.07;9.68;;;11.20;72.00;;;;;;6069227;23;20066;-75
2021/03/22 12:48:20;;;;;;;13.15;9.05;;;11.30;70.60;;;;;;6067654;23;20010;-75
2021/03/22 12:50:48;;;;;;;13.45;9.18;;;11.50;70.90;;;;;;6069257;23;20458;-75
2021/03/22 12:53:15;;;;;;;15.05;9.65;;;11.60;70.10;;;;;;6068985;23;20090;-75
2021/03/22 12:55:41;;;;;;;13.10;9.27;;;11.70;70.00;;;;;;6069228;23;20007;-75
2021/03/22 12:58:23;;;;;;;14.05;8.68;;;11.40;70.90;;;;;;6069274;23;20010;-75
2021/03/22 13:00:51;;;;;;;13.75;9.00;;;11.60;69.80;;;;;;6068803;23;20013;-75
2021/03/22 13:03:25;;;;;;;13.38;8.15;;;11.50;70.70;;;;;;6068936;23;20419;-75
2021/03/22 13:05:54;;;;;;;12.07;9.02;;;11.60;70.10;;;;;;6068573;23;20015;-75
2021/03/22 13:08:28;;;;;;;14.68;9.07;;;11.90;69.10;;;;;;6068660;23;20371;-75
2021/03/22 13:10:58;;;;;;;13.25;9.68;;;11.60;70.00;;;;;;6068168;23;20011;-74
2021/03/22 13:13:24;;;;;;;12.18;8.55;;;11.40;70.70;;;;;;6068363;23;20089;-75
2021/03/22 13:15:52;;;;;;;12.27;9.18;;;11.40;71.20;;;;;;6068815;23;20102;-75
2021/03/22 13:18:20;;;;;;;13.55;8.63;;;11.60;71.10;;;;;;6068207;23;20018;-75
2021/03/22 13:20:57;;;;;;;12.40;7.82;;;11.80;70.40;;;;;;6068644;23;20003;-75
2021/03/22 13:23:25;;;;;;;14.18;8.52;;;11.50;69.10;;;;;;6068619;23;20007;-75
2021/03/22 13:25:51;;;;;;;14.95;9.00;;;11.50;69.90;;;;;;6068487;23;20427;-75
2021/03/22 13:28:21;;;;;;;12.02;7.90;;;11.30;70.10;;;;;;6068977;23;20079;-75
2021/03/22 13:30:47;;;;;;;11.63;8.25;;;11.50;69.10;;;;;;6068209;23;20003;-75
2021/03/22 13:33:15;;;;;;;16.88;8.40;;;11.10;68.00;;;;;;6068725;23;20003;-74
2021/03/22 13:35:42;;;;;;;11.43;6.55;;;11.30;70.50;;;;;;6068871;23;20076;-75
2021/03/22 13:38:10;;;;;;;9.48;7.18;;;11.40;66.30;;;;;;6068476;23;20010;-74
2021/03/22 13:40:36;;;;;;;10.35;7.03;;;11.60;67.30;;;;;;6068842;23;20003;-74
2021/03/22 13:43:02;;;;;;;13.88;8.85;;;11.80;68.70;;;;;;6068132;23;20316;-74
2021/03/22 13:45:29;;;;;;;14.63;7.38;;;11.80;64.20;;;;;;6068783;23;20003;-75
2021/03/22 13:47:57;;;;;;;11.25;7.53;;;11.40;67.50;;;;;;6068285;23;20058;-75
2021/03/22 13:50:23;;;;;;;11.95;7.57;;;11.40;68.70;;;;;;6068736;23;20011;-75
2021/03/22 13:52:50;;;;;;;10.60;7.55;;;11.50;69.00;;;;;;6068640;23;20013;-75
2021/03/22 13:55:18;;;;;;;10.68;6.50;;;11.40;70.30;;;;;;6067378;23;20029;-74
2021/03/22 13:57:45;;;;;;;12.18;8.35;;;11.40;70.10;;;;;;6068382;23;20033;-75
2021/03/22 14:00:13;;;;;;;10.13;6.38;;;11.40;69.90;;;;;;6068419;23;20058;-74
2021/03/22 14:02:40;;;;;;;12.77;7.93;;;11.50;66.30;;;;;;6068471;23;20030;-75
2021/03/22 14:05:14;;;;;;;10.98;7.53;;;11.30;68.90;;;;;;6068245;23;20034;-75
2021/03/22 14:07:43;;;;;;;12.88;7.45;;;11.30;70.20;;;;;;6068672;23;20038;-75
2021/03/22 14:10:09;;;;;;;12.65;7.15;;;11.20;70.40;;;;;;6043199;23;20011;-75
2021/03/22 14:12:35;;;;;;;13.32;7.13;;;10.90;71.40;;;;;;6068358;23;20463;-75
2021/03/22 14:15:00;;;;;;;13.13;6.78;;;10.90;71.80;;;;;;6068711;23;20007;-75
2021/03/22 14:17:26;;;;;;;9.02;6.32;;;10.80;70.80;;;;;;6068307;23;20038;-75
2021/03/22 14:19:52;;;;;;;10.98;6.07;;;10.70;71.70;;;;;;6068736;23;20007;-75
2021/03/22 14:22:18;;;;;;;11.82;7.47;;;10.80;68.60;;;;;;6068316;23;20007;-75
2021/03/22 14:24:43;;;;;;;9.93;6.35;;;10.80;69.40;;;;;;6068328;23;20013;-75
2021/03/22 14:27:10;;;;;;;11.70;7.22;;;10.90;68.60;;;;;;6068553;23;20331;-75
2021/03/22 14:29:36;;;;;;;11.05;6.75;;;10.70;69.90;;;;;;6069902;23;20007;-75
2021/03/22 14:32:02;;;;;;;10.35;5.88;;;10.70;69.20;;;;;;6070169;23;20511;-75
2021/03/22 14:34:28;;;;;;;10.15;5.95;;;10.50;69.20;;;;;;6069931;23;20073;-75
2021/03/22 14:36:54;;;;;;;10.68;5.75;;;10.70;70.60;;;;;;6070540;23;20442;-75
2021/03/22 14:39:20;;;;;;;8.00;4.90;;;10.50;68.80;;;;;;6070137;23;20011;-75
2021/03/22 14:41:47;;;;;;;7.95;4.97;;;10.50;68.60;;;;;;6070214;23;20082;-75
2021/03/22 14:44:12;;;;;;;9.63;4.65;;;10.50;67.40;;;;;;6070263;23;20003;-74
2021/03/22 14:46:38;;;;;;;8.20;4.85;;;10.50;67.20;;;;;;6044426;23;20011;-75
2021/03/22 14:49:04;;;;;;;7.45;4.18;;;10.50;64.70;;;;;;6070209;23;20034;-75
2021/03/22 14:51:30;;;;;;;9.82;4.72;;;10.60;64.10;;;;;;6070338;23;20462;-75
2021/03/22 14:53:57;;;;;;;8.05;4.00;;;10.50;66.10;;;;;;6070110;23;20007;-74
2021/03/22 14:56:23;;;;;;;7.57;4.40;;;10.50;64.70;;;;;;6070148;23;20054;-74
2021/03/22 14:58:51;;;;;;;8.90;3.75;;;10.70;61.60;;;;;;6044544;23;20009;-74
2021/03/22 15:01:17;;;;;;;6.95;3.65;;;10.90;62.30;;;;;;6070149;23;20010;-74
2021/03/22 15:03:43;;;;;;;8.98;3.70;;;10.90;61.50;;;;;;6070401;23;20003;-74
2021/03/22 15:06:09;;;;;;;8.23;4.38;;;11.00;64.00;;;;;;6069557;23;20090;-75
2021/03/22 15:08:35;;;;;;;8.05;4.35;;;11.00;61.50;;;;;;6069911;23;20432;-75
2021/03/22 15:11:01;;;;;;;8.50;3.40;;;11.10;62.50;;;;;;6069661;23;20058;-75
2021/03/22 15:13:26;;;;;;;10.30;3.80;;;11.10;63.60;;;;;;6069850;23;20019;-75
2021/03/22 15:15:52;;;;;;;5.82;3.65;;;11.10;62.90;;;;;;6070065;23;20320;-74
2021/03/22 15:18:21;;;;;;;7.47;4.00;;;11.00;62.00;;;;;;6069653;23;20002;-74
2021/03/22 15:20:47;;;;;;;7.63;3.50;;;11.00;61.30;;;;;;6069709;23;20007;-75
2021/03/22 15:23:26;;;;;;;11.43;4.32;;;11.10;62.90;;;;;;6069448;23;20081;-75
2021/03/22 15:25:52;;;;;;;7.80;3.97;;;11.00;63.60;;;;;;6069921;23;20404;-74
2021/03/22 15:28:24;;;;;;;10.98;5.45;;;11.00;64.90;;;;;;6070049;23;20006;-75
2021/03/22 15:30:50;;;;;;;9.52;4.50;;;11.00;63.60;;;;;;6069665;23;20011;-75
2021/03/22 15:33:34;;;;;;;8.57;3.97;;;10.90;65.10;;;;;;6069380;23;20037;-75
2021/03/22 15:36:07;;;;;;;8.73;4.43;;;10.80;66.10;;;;;;6070005;23;20081;-75
2021/03/22 15:38:34;;;;;;;7.75;4.30;;;10.80;65.40;;;;;;6069892;23;20007;-75
2021/03/22 15:41:01;;;;;;;8.43;3.80;;;10.80;68.60;;;;;;6069152;23;20007;-75
2021/03/22 15:43:27;;;;;;;10.98;4.15;;;10.90;64.80;;;;;;6069914;23;20007;-75
2021/03/22 15:45:56;;;;;;;7.82;3.42;;;10.90;66.00;;;;;;6069270;23;20005;-75
2021/03/22 15:48:22;;;;;;;8.27;3.72;;;10.90;67.60;;;;;;6069321;23;20014;-75
2021/03/22 15:50:48;;;;;;;7.75;3.80;;;10.90;67.00;;;;;;6069810;23;20003;-74
2021/03/22 15:53:14;;;;;;;8.57;4.10;;;11.00;68.20;;;;;;6069292;23;20030;-75
2021/03/22 15:55:40;;;;;;;11.40;4.45;;;11.00;67.20;;;;;;6069757;23;20013;-75
2021/03/22 15:58:06;;;;;;;9.27;3.80;;;11.00;67.70;;;;;;6069819;23;20058;-75
2021/03/22 16:00:38;;;;;;;9.32;4.38;;;11.00;68.90;;;;;;6069330;23;20019;-74
2021/03/22 16:03:19;;;;;;;7.75;4.28;;;11.10;67.30;;;;;;6069171;23;20423;-74
2021/03/22 16:05:48;;;;;;;8.98;4.57;;;11.10;68.10;;;;;;6068653;23;20054;-75
2021/03/22 16:08:16;;;;;;;9.88;4.28;;;11.10;68.20;;;;;;6069575;23;20007;-75
2021/03/22 16:10:42;;;;;;;10.68;4.78;;;11.00;68.20;;;;;;6069330;23;20019;-74
2021/03/22 16:13:23;;;;;;;8.68;4.55;;;11.00;68.30;;;;;;6069159;23;20031;-75
2021/03/22 16:15:52;;;;;;;9.90;3.95;;;11.00;69.80;;;;;;6069256;23;20029;-74
2021/03/22 16:18:20;;;;;;;7.22;4.47;;;11.00;70.30;;;;;;6068851;23;20014;-74
2021/03/22 16:20:50;;;;;;;10.77;6.05;;;11.00;70.90;;;;;;6069295;23;20423;-74
2021/03/22 16:23:18;;;;;;;10.55;5.28;;;11.00;71.50;;;;;;6067822;23;20010;-74
2021/03/22 16:25:45;;;;;;;8.00;4.55;;;10.90;72.30;;;;;;6068924;23;20010;-74
2021/03/22 16:28:12;;;;;;;156.05;85.45;;;10.90;72.70;;;;;;6069123;23;20014;-74
2021/03/22 16:30:40;;;;;;;31.67;15.88;;;10.90;73.60;;;;;;6068600;23;20029;-74
2021/03/22 16:33:07;;;;;;;87.13;54.15;;;10.70;74.40;;;;;;6066225;23;20037;-74
2021/03/22 16:35:40;;;;;;;16.20;9.65;;;10.70;74.90;;;;;;6067190;23;20010;-75
2021/03/22 16:38:11;;;;;;;20.50;15.15;;;10.80;73.40;;;;;;6067873;23;20014;-75
2021/03/22 16:40:39;;;;;;;48.00;25.83;;;10.80;74.60;;;;;;6068598;23;20438;-76
2021/03/22 16:43:07;;;;;;;34.75;18.80;;;10.90;74.20;;;;;;6068605;23;20153;-75
2021/03/22 16:45:35;;;;;;;11.55;6.80;;;11.00;73.60;;;;;;6059772;23;20128;-74
2021/03/22 16:48:02;;;;;;;11.27;6.60;;;11.00;73.30;;;;;;6061813;23;20015;-74
2021/03/22 16:50:29;;;;;;;16.60;9.68;;;10.90;75.30;;;;;;6066042;23;20003;-75
2021/03/22 16:52:55;;;;;;;20.52;16.25;;;10.80;75.00;;;;;;6065236;23;20472;-74
2021/03/22 16:55:25;;;;;;;13.70;6.85;;;10.80;75.00;;;;;;6060648;23;20687;-74
2021/03/22 16:57:51;;;;;;;8.68;5.68;;;10.80;73.90;;;;;;6065401;23;20086;-75
2021/03/22 17:00:21;;;;;;;10.07;6.07;;;10.80;73.80;;;;;;6068555;23;20026;-74
2021/03/22 17:02:47;;;;;;;10.82;4.93;;;10.70;75.90;;;;;;6068327;23;20086;-74
2021/03/22 17:05:18;;;;;;;7.15;4.38;;;10.60;74.40;;;;;;6064194;23;20002;-75
2021/03/22 17:07:44;;;;;;;8.25;4.20;;;10.70;73.70;;;;;;6063091;23;20015;-75
2021/03/22 17:10:10;;;;;;;15.38;9.52;;;10.70;73.80;;;;;;6062778;23;20059;-73
2021/03/22 17:12:36;;;;;;;472.55;280.30;;;10.50;74.90;;;;;;6061438;23;20062;-72
2021/03/22 17:15:03;;;;;;;17.63;10.35;;;10.40;74.10;;;;;;6062521;23;20319;-73
2021/03/22 17:17:30;;;;;;;9.20;4.65;;;10.70;67.40;;;;;;6067279;23;20069;-73
2021/03/22 17:19:56;;;;;;;13.20;5.88;;;10.70;68.00;;;;;;6062665;23;20514;-73
2021/03/22 17:22:23;;;;;;;9.52;4.22;;;10.60;68.40;;;;;;6037900;23;20010;-72
2021/03/22 17:24:50;;;;;;;6.57;3.42;;;10.70;67.10;;;;;;6061585;23;20007;-72
2021/03/22 17:27:19;;;;;;;17.23;7.28;;;10.60;69.10;;;;;;6066176;23;20018;-72
2021/03/22 17:29:47;;;;;;;66.28;38.53;;;10.50;67.80;;;;;;6041280;23;20054;-73
2021/03/22 17:32:15;;;;;;;6.13;2.75;;;10.80;65.40;;;;;;6068213;23;20030;-74
2021/03/22 17:34:41;;;;;;;19.50;9.52;;;10.80;64.80;;;;;;6062744;23;20070;-72
2021/03/22 17:37:07;;;;;;;31.40;16.17;;;10.60;65.90;;;;;;6037138;23;20017;-73
2021/03/22 17:39:32;;;;;;;8.52;3.33;;;10.50;67.40;;;;;;6066696;23;20010;-73
2021/03/22 17:41:58;;;;;;;7.72;3.72;;;10.50;65.80;;;;;;6066253;23;20007;-72
2021/03/22 17:44:24;;;;;;;26.35;13.80;;;10.30;67.30;;;;;;6064979;23;20059;-72
2021/03/22 17:46:50;;;;;;;82.65;40.30;;;10.10;68.50;;;;;;6067217;23;20089;-72
2021/03/22 17:49:17;;;;;;;116.13;56.33;;;10.00;69.00;;;;;;6039665;23;20038;-71
2021/03/22 17:51:45;;;;;;;10.95;5.00;;;9.90;68.20;;;;;;6068386;23;20033;-71
2021/03/22 17:54:11;;;;;;;27.08;13.13;;;10.10;67.50;;;;;;6068649;23;20081;-72
2021/03/22 17:56:37;;;;;;;4.15;2.70;;;10.00;68.30;;;;;;6067981;23;20007;-72
2021/03/22 17:59:03;;;;;;;43.13;22.60;;;9.80;67.80;;;;;;6068372;23;20033;-73
2021/03/22 18:01:32;;;;;;;11.35;3.25;;;9.80;68.50;;;;;;6068389;23;20312;-73
2021/03/22 18:03:58;;;;;;;30.33;13.60;;;9.70;68.70;;;;;;6045139;23;20470;-74
2021/03/22 18:06:24;;;;;;;133.40;71.65;;;9.90;67.90;;;;;;6070318;23;20018;-74
2021/03/22 18:08:50;;;;;;;9.63;3.88;;;9.80;67.90;;;;;;6070305;23;20013;-74
2021/03/22 18:11:22;;;;;;;8.68;3.15;;;9.60;68.40;;;;;;6070521;23;20339;-74
2021/03/22 18:13:54;;;;;;;8.57;3.00;;;9.70;68.70;;;;;;6087807;23;20455;-75
2021/03/22 18:16:22;;;;;;;8.25;4.45;;;9.60;69.30;;;;;;6099604;23;20017;-75
2021/03/22 18:18:48;;;;;;;6.97;2.40;;;9.50;70.10;;;;;;6099071;23;20010;-74
2021/03/22 18:21:19;;;;;;;4.43;2.25;;;9.40;69.30;;;;;;6094024;23;20002;-74
2021/03/22 18:23:45;;;;;;;10.20;3.60;;;9.40;69.90;;;;;;6097288;23;20003;-74
2021/03/22 18:26:13;;;;;;;10.18;4.75;;;9.20;71.90;;;;;;6067780;23;20021;-75
2021/03/22 18:28:39;;;;;;;9.02;4.00;;;9.00;72.50;;;;;;6096025;23;20065;-74
2021/03/22 18:31:05;;;;;;;10.48;2.72;;;9.00;72.00;;;;;;6071704;23;20057;-74
2021/03/22 18:33:31;;;;;;;9.02;3.40;;;9.60;68.30;;;;;;6096607;23;20006;-75
2021/03/22 18:35:57;;;;;;;15.93;8.55;;;9.90;67.60;;;;;;6096291;23;20362;-74
2021/03/22 18:38:25;;;;;;;54.05;37.60;;;9.60;68.60;;;;;;6095670;23;20009;-74
2021/03/22 18:40:53;;;;;;;8.18;3.30;;;9.50;69.30;;;;;;6094511;23;20007;-74
2021/03/22 18:43:27;;;;;;;9.77;3.05;;;9.70;67.40;;;;;;6070861;23;20002;-74
2021/03/22 18:45:55;;;;;;;31.77;20.83;;;9.60;69.30;;;;;;6096692;23;20007;-73
2021/03/22 18:48:24;;;;;;;7.57;3.85;;;9.30;69.20;;;;;;6096691;23;20069;-74
2021/03/22 18:50:53;;;;;;;8.45;3.50;;;9.50;69.00;;;;;;6097951;23;20058;-74
2021/03/22 18:53:21;;;;;;;5.47;2.47;;;9.20;70.30;;;;;;6097561;23;20069;-74
2021/03/22 18:55:47;;;;;;;4.95;2.40;;;9.20;70.80;;;;;;6097077;23;20006;-74
2021/03/22 18:58:15;;;;;;;23.08;17.60;;;8.90;74.40;;;;;;6098370;23;20315;-74
2021/03/22 19:00:45;;;;;;;7.97;4.00;;;8.90;72.80;;;;;;6072989;23;20006;-74
2021/03/22 19:03:14;;;;;;;10.52;3.42;;;9.30;70.80;;;;;;6098252;23;20002;-74
2021/03/22 19:05:40;;;;;;;76.50;49.92;;;9.40;70.70;;;;;;6098408;23;20087;-74
2021/03/22 19:08:09;;;;;;;9.15;3.85;;;9.40;70.60;;;;;;6098332;23;20319;-74
2021/03/22 19:10:50;;;;;;;7.93;3.40;;;9.50;69.90;;;;;;6098376;23;20014;-74
2021/03/22 19:13:18;;;;;;;15.63;8.07;;;9.60;69.50;;;;;;6085017;23;20466;-74
2021/03/22 19:15:44;;;;;;;8.90;3.60;;;9.50;69.50;;;;;;6066957;23;20014;-74
2021/03/22 19:18:11;;;;;;;13.85;7.03;;;9.60;69.40;;;;;;6068036;23;20471;-74
2021/03/22 19:20:39;;;;;;;7.82;3.75;;;9.40;70.70;;;;;;6069147;23;20002;-74
2021/03/22 19:23:06;;;;;;;134.75;82.63;;;9.30;71.60;;;;;;6043965;23;20400;-74
2021/03/22 19:25:33;;;;;;;10.40;3.10;;;9.20;71.40;;;;;;6069460;23;20033;-74
2021/03/22 19:27:59;;;;;;;8.35;3.25;;;9.20;71.30;;;;;;6068171;23;20438;-74